sensor_id;sensor_type;location;lat;lon;timestamp;temperature;humidity
5808;DHT22;2930;42.678;23.312;2023-07-20T00:01:43;23.00;76.50
5808;DHT22;2930;42.678;23.312;2023-07-20T00:04:10;23.00;75.90
5808;DHT22;2930;42.678;23.312;2023-07-20T00:06:36;23.10;75.50
5808;DHT22;2930;42.678;23.312;2023-07-20T00:09:04;23.10;75.20
5808;DHT22;2930;42.678;23.312;2023-07-20T00:11:30;23.10;74.80
5808;DHT22;2930;42.678;23.312;2023-07-20T00:13:56;23.10;74.90
5808;DHT22;2930;42.678;23.312;2023-07-20T00:16:21;23.10;75.30
5808;DHT22;2930;42.678;23.312;2023-07-20T00:18:47;23.20;75.30
5808;DHT22;2930;42.678;23.312;2023-07-20T00:21:13;23.20;75.70
5808;DHT22;2930;42.678;23.312;2023-07-20T00:23:38;23.20;76.60
5808;DHT22;2930;42.678;23.312;2023-07-20T00:26:04;23.20;76.40
5808;DHT22;2930;42.678;23.312;2023-07-20T00:28:30;23.20;75.80
5808;DHT22;2930;42.678;23.312;2023-07-20T00:30:56;23.20;76.10
5808;DHT22;2930;42.678;23.312;2023-07-20T00:33:21;23.20;75.90
5808;DHT22;2930;42.678;23.312;2023-07-20T00:35:47;23.20;75.90
5808;DHT22;2930;42.678;23.312;2023-07-20T00:38:13;23.20;75.90
5808;DHT22;2930;42.678;23.312;2023-07-20T00:40:40;23.30;75.80
5808;DHT22;2930;42.678;23.312;2023-07-20T00:43:06;23.30;75.60
5808;DHT22;2930;42.678;23.312;2023-07-20T00:45:33;23.30;75.60
5808;DHT22;2930;42.678;23.312;2023-07-20T00:47:59;23.40;75.60
5808;DHT22;2930;42.678;23.312;2023-07-20T00:50:27;23.40;75.80
5808;DHT22;2930;42.678;23.312;2023-07-20T00:52:54;23.40;75.70
5808;DHT22;2930;42.678;23.312;2023-07-20T00:55:20;23.50;75.80
5808;DHT22;2930;42.678;23.312;2023-07-20T00:57:46;23.40;76.50
5808;DHT22;2930;42.678;23.312;2023-07-20T01:00:12;23.40;76.10
5808;DHT22;2930;42.678;23.312;2023-07-20T01:02:38;23.30;75.90
5808;DHT22;2930;42.678;23.312;2023-07-20T01:05:05;23.20;76.20
5808;DHT22;2930;42.678;23.312;2023-07-20T01:07:35;23.20;76.40
5808;DHT22;2930;42.678;23.312;2023-07-20T01:10:16;23.10;76.30
5808;DHT22;2930;42.678;23.312;2023-07-20T01:12:46;23.00;76.40
5808;DHT22;2930;42.678;23.312;2023-07-20T01:15:12;23.00;76.80
5808;DHT22;2930;42.678;23.312;2023-07-20T01:17:38;22.90;77.20
5808;DHT22;2930;42.678;23.312;2023-07-20T01:20:06;22.90;77.40
5808;DHT22;2930;42.678;23.312;2023-07-20T01:25:33;22.80;77.90
5808;DHT22;2930;42.678;23.312;2023-07-20T01:33:36;22.60;79.30
5808;DHT22;2930;42.678;23.312;2023-07-20T01:36:03;22.60;79.10
5808;DHT22;2930;42.678;23.312;2023-07-20T01:38:29;22.50;79.30
5808;DHT22;2930;42.678;23.312;2023-07-20T01:40:55;22.40;79.50
5808;DHT22;2930;42.678;23.312;2023-07-20T01:43:21;22.40;79.90
5808;DHT22;2930;42.678;23.312;2023-07-20T01:45:47;22.30;79.70
5808;DHT22;2930;42.678;23.312;2023-07-20T01:48:13;22.30;80.00
5808;DHT22;2930;42.678;23.312;2023-07-20T01:50:39;22.30;80.00
5808;DHT22;2930;42.678;23.312;2023-07-20T01:53:04;22.20;80.30
5808;DHT22;2930;42.678;23.312;2023-07-20T01:55:30;22.20;80.50
5808;DHT22;2930;42.678;23.312;2023-07-20T01:57:56;22.10;80.70
5808;DHT22;2930;42.678;23.312;2023-07-20T02:00:22;22.10;80.50
5808;DHT22;2930;42.678;23.312;2023-07-20T02:02:50;22.10;80.90
5808;DHT22;2930;42.678;23.312;2023-07-20T02:05:16;22.00;80.80
5808;DHT22;2930;42.678;23.312;2023-07-20T02:07:42;22.00;80.80
5808;DHT22;2930;42.678;23.312;2023-07-20T02:10:08;22.00;81.00
5808;DHT22;2930;42.678;23.312;2023-07-20T02:12:34;22.00;80.90
5808;DHT22;2930;42.678;23.312;2023-07-20T02:15:00;21.90;80.80
5808;DHT22;2930;42.678;23.312;2023-07-20T02:17:26;21.90;81.10
5808;DHT22;2930;42.678;23.312;2023-07-20T02:19:56;21.90;81.30
5808;DHT22;2930;42.678;23.312;2023-07-20T02:22:23;21.90;80.60
5808;DHT22;2930;42.678;23.312;2023-07-20T02:24:49;21.80;81.30
5808;DHT22;2930;42.678;23.312;2023-07-20T02:27:15;21.80;81.00
5808;DHT22;2930;42.678;23.312;2023-07-20T02:29:41;21.80;81.10
5808;DHT22;2930;42.678;23.312;2023-07-20T02:32:08;21.80;81.30
5808;DHT22;2930;42.678;23.312;2023-07-20T02:34:35;21.70;81.50
5808;DHT22;2930;42.678;23.312;2023-07-20T02:37:01;21.70;81.30
5808;DHT22;2930;42.678;23.312;2023-07-20T02:39:30;21.70;81.30
5808;DHT22;2930;42.678;23.312;2023-07-20T02:41:55;21.70;81.20
5808;DHT22;2930;42.678;23.312;2023-07-20T02:44:21;21.70;82.60
5808;DHT22;2930;42.678;23.312;2023-07-20T02:46:47;21.60;82.10
5808;DHT22;2930;42.678;23.312;2023-07-20T02:49:15;21.30;85.20
5808;DHT22;2930;42.678;23.312;2023-07-20T02:51:41;21.30;85.60
5808;DHT22;2930;42.678;23.312;2023-07-20T02:54:07;21.20;83.30
5808;DHT22;2930;42.678;23.312;2023-07-20T02:56:33;21.20;85.50
5808;DHT22;2930;42.678;23.312;2023-07-20T02:59:01;21.20;83.60
5808;DHT22;2930;42.678;23.312;2023-07-20T03:01:27;21.30;83.30
5808;DHT22;2930;42.678;23.312;2023-07-20T03:03:55;21.30;83.60
5808;DHT22;2930;42.678;23.312;2023-07-20T03:06:20;21.30;83.40
5808;DHT22;2930;42.678;23.312;2023-07-20T03:08:46;21.30;83.50
5808;DHT22;2930;42.678;23.312;2023-07-20T03:11:20;21.30;83.30
5808;DHT22;2930;42.678;23.312;2023-07-20T03:13:46;21.30;83.60
5808;DHT22;2930;42.678;23.312;2023-07-20T03:16:13;21.30;83.20
5808;DHT22;2930;42.678;23.312;2023-07-20T03:18:41;21.30;83.30
5808;DHT22;2930;42.678;23.312;2023-07-20T03:21:08;21.30;83.20
5808;DHT22;2930;42.678;23.312;2023-07-20T03:23:37;21.30;83.50
5808;DHT22;2930;42.678;23.312;2023-07-20T03:26:02;21.30;83.90
5808;DHT22;2930;42.678;23.312;2023-07-20T03:28:28;21.20;84.90
5808;DHT22;2930;42.678;23.312;2023-07-20T03:30:57;21.20;83.80
5808;DHT22;2930;42.678;23.312;2023-07-20T03:33:28;21.20;83.70
5808;DHT22;2930;42.678;23.312;2023-07-20T03:35:54;21.20;85.60
5808;DHT22;2930;42.678;23.312;2023-07-20T03:38:20;21.10;86.20
5808;DHT22;2930;42.678;23.312;2023-07-20T03:43:16;20.80;86.10
5808;DHT22;2930;42.678;23.312;2023-07-20T03:45:42;20.80;85.40
5808;DHT22;2930;42.678;23.312;2023-07-20T03:48:08;20.90;84.90
5808;DHT22;2930;42.678;23.312;2023-07-20T03:50:34;21.00;84.80
5808;DHT22;2930;42.678;23.312;2023-07-20T03:52:59;21.00;84.40
5808;DHT22;2930;42.678;23.312;2023-07-20T03:55:25;21.10;84.20
5808;DHT22;2930;42.678;23.312;2023-07-20T03:57:51;21.20;84.40
5808;DHT22;2930;42.678;23.312;2023-07-20T04:00:17;21.10;86.50
5808;DHT22;2930;42.678;23.312;2023-07-20T04:02:43;21.00;85.20
5808;DHT22;2930;42.678;23.312;2023-07-20T04:05:09;21.10;84.40
5808;DHT22;2930;42.678;23.312;2023-07-20T04:07:35;21.10;86.10
5808;DHT22;2930;42.678;23.312;2023-07-20T04:10:00;20.90;87.10
5808;DHT22;2930;42.678;23.312;2023-07-20T04:12:26;20.90;85.70
5808;DHT22;2930;42.678;23.312;2023-07-20T04:14:52;21.00;84.90
5808;DHT22;2930;42.678;23.312;2023-07-20T04:17:18;21.00;86.60
5808;DHT22;2930;42.678;23.312;2023-07-20T04:19:44;21.00;84.80
5808;DHT22;2930;42.678;23.312;2023-07-20T04:22:10;21.20;84.30
5808;DHT22;2930;42.678;23.312;2023-07-20T04:24:35;21.20;84.40
5808;DHT22;2930;42.678;23.312;2023-07-20T04:27:01;21.30;84.60
5808;DHT22;2930;42.678;23.312;2023-07-20T04:29:27;21.40;84.70
5808;DHT22;2930;42.678;23.312;2023-07-20T04:31:52;21.40;84.80
5808;DHT22;2930;42.678;23.312;2023-07-20T04:34:18;21.50;84.80
5808;DHT22;2930;42.678;23.312;2023-07-20T04:36:44;21.60;84.80
5808;DHT22;2930;42.678;23.312;2023-07-20T04:39:10;21.60;84.90
5808;DHT22;2930;42.678;23.312;2023-07-20T04:41:36;21.70;84.90
5808;DHT22;2930;42.678;23.312;2023-07-20T04:44:01;21.70;84.90
5808;DHT22;2930;42.678;23.312;2023-07-20T04:46:27;21.70;84.70
5808;DHT22;2930;42.678;23.312;2023-07-20T04:48:53;21.80;84.60
5808;DHT22;2930;42.678;23.312;2023-07-20T04:51:18;21.80;84.30
5808;DHT22;2930;42.678;23.312;2023-07-20T04:53:47;21.90;84.30
5808;DHT22;2930;42.678;23.312;2023-07-20T04:56:12;21.90;84.20
5808;DHT22;2930;42.678;23.312;2023-07-20T04:58:38;22.00;84.20
5808;DHT22;2930;42.678;23.312;2023-07-20T05:01:04;22.00;84.00
5808;DHT22;2930;42.678;23.312;2023-07-20T05:03:29;22.10;83.80
5808;DHT22;2930;42.678;23.312;2023-07-20T05:05:55;22.10;83.90
5808;DHT22;2930;42.678;23.312;2023-07-20T05:08:21;22.20;83.70
5808;DHT22;2930;42.678;23.312;2023-07-20T05:10:47;22.20;83.20
5808;DHT22;2930;42.678;23.312;2023-07-20T05:13:13;22.20;84.00
5808;DHT22;2930;42.678;23.312;2023-07-20T05:15:39;22.30;82.70
5808;DHT22;2930;42.678;23.312;2023-07-20T05:18:05;22.30;83.20
5808;DHT22;2930;42.678;23.312;2023-07-20T05:20:31;22.30;81.90
5808;DHT22;2930;42.678;23.312;2023-07-20T05:22:59;22.30;82.30
5808;DHT22;2930;42.678;23.312;2023-07-20T05:25:24;22.40;82.80
5808;DHT22;2930;42.678;23.312;2023-07-20T05:27:50;22.50;82.00
5808;DHT22;2930;42.678;23.312;2023-07-20T05:30:16;22.60;82.50
5808;DHT22;2930;42.678;23.312;2023-07-20T05:32:42;22.60;82.40
5808;DHT22;2930;42.678;23.312;2023-07-20T05:35:08;22.70;81.60
5808;DHT22;2930;42.678;23.312;2023-07-20T05:37:34;22.70;81.40
5808;DHT22;2930;42.678;23.312;2023-07-20T05:39:59;22.80;82.40
5808;DHT22;2930;42.678;23.312;2023-07-20T05:42:25;22.80;80.80
5808;DHT22;2930;42.678;23.312;2023-07-20T05:44:51;22.80;80.40
5808;DHT22;2930;42.678;23.312;2023-07-20T05:47:18;22.90;80.20
5808;DHT22;2930;42.678;23.312;2023-07-20T05:49:44;22.90;79.90
5808;DHT22;2930;42.678;23.312;2023-07-20T05:52:09;22.90;80.50
5808;DHT22;2930;42.678;23.312;2023-07-20T05:54:35;23.00;80.20
5808;DHT22;2930;42.678;23.312;2023-07-20T05:57:01;23.10;80.00
5808;DHT22;2930;42.678;23.312;2023-07-20T05:59:27;23.10;79.80
5808;DHT22;2930;42.678;23.312;2023-07-20T06:01:54;23.20;79.20
5808;DHT22;2930;42.678;23.312;2023-07-20T06:04:20;23.30;79.60
5808;DHT22;2930;42.678;23.312;2023-07-20T06:06:46;23.30;79.00
5808;DHT22;2930;42.678;23.312;2023-07-20T06:09:12;23.40;78.40
5808;DHT22;2930;42.678;23.312;2023-07-20T06:11:40;23.40;78.70
5808;DHT22;2930;42.678;23.312;2023-07-20T06:14:06;23.50;78.10
5808;DHT22;2930;42.678;23.312;2023-07-20T06:16:32;23.60;78.30
5808;DHT22;2930;42.678;23.312;2023-07-20T06:18:59;23.60;78.20
5808;DHT22;2930;42.678;23.312;2023-07-20T06:21:25;23.70;78.20
5808;DHT22;2930;42.678;23.312;2023-07-20T06:23:50;23.60;77.20
5808;DHT22;2930;42.678;23.312;2023-07-20T06:26:16;23.50;77.30
5808;DHT22;2930;42.678;23.312;2023-07-20T06:28:42;23.60;77.50
5808;DHT22;2930;42.678;23.312;2023-07-20T06:31:07;23.60;78.10
5808;DHT22;2930;42.678;23.312;2023-07-20T06:33:33;23.70;77.20
5808;DHT22;2930;42.678;23.312;2023-07-20T06:36:00;23.90;77.20
5808;DHT22;2930;42.678;23.312;2023-07-20T06:38:25;23.90;76.90
5808;DHT22;2930;42.678;23.312;2023-07-20T06:40:51;23.90;75.90
5808;DHT22;2930;42.678;23.312;2023-07-20T06:43:17;23.90;76.30
5808;DHT22;2930;42.678;23.312;2023-07-20T06:45:43;24.00;76.10
5808;DHT22;2930;42.678;23.312;2023-07-20T06:48:09;24.10;76.60
5808;DHT22;2930;42.678;23.312;2023-07-20T06:50:35;24.20;76.30
5808;DHT22;2930;42.678;23.312;2023-07-20T06:53:00;24.30;76.50
5808;DHT22;2930;42.678;23.312;2023-07-20T06:55:29;24.40;76.50
5808;DHT22;2930;42.678;23.312;2023-07-20T06:57:55;24.60;76.50
5808;DHT22;2930;42.678;23.312;2023-07-20T07:00:21;24.80;76.50
5808;DHT22;2930;42.678;23.312;2023-07-20T07:02:46;25.00;76.90
5808;DHT22;2930;42.678;23.312;2023-07-20T07:05:12;25.10;76.00
5808;DHT22;2930;42.678;23.312;2023-07-20T07:07:40;25.30;75.40
5808;DHT22;2930;42.678;23.312;2023-07-20T07:10:06;25.60;74.40
5808;DHT22;2930;42.678;23.312;2023-07-20T07:12:32;25.80;73.60
5808;DHT22;2930;42.678;23.312;2023-07-20T07:14:58;26.00;73.60
5808;DHT22;2930;42.678;23.312;2023-07-20T07:17:24;26.20;73.20
5808;DHT22;2930;42.678;23.312;2023-07-20T07:19:52;26.30;74.00
5808;DHT22;2930;42.678;23.312;2023-07-20T07:22:20;26.40;73.20
5808;DHT22;2930;42.678;23.312;2023-07-20T07:24:47;26.50;73.30
5808;DHT22;2930;42.678;23.312;2023-07-20T07:27:12;26.60;72.10
5808;DHT22;2930;42.678;23.312;2023-07-20T07:29:38;26.60;72.60
5808;DHT22;2930;42.678;23.312;2023-07-20T07:32:04;26.60;72.00
5808;DHT22;2930;42.678;23.312;2023-07-20T07:34:30;26.70;73.10
5808;DHT22;2930;42.678;23.312;2023-07-20T07:36:55;26.70;72.80
5808;DHT22;2930;42.678;23.312;2023-07-20T07:39:21;26.70;72.60
5808;DHT22;2930;42.678;23.312;2023-07-20T07:41:47;26.70;73.00
5808;DHT22;2930;42.678;23.312;2023-07-20T07:44:12;26.70;72.50
5808;DHT22;2930;42.678;23.312;2023-07-20T07:46:38;26.80;72.80
5808;DHT22;2930;42.678;23.312;2023-07-20T07:49:04;26.80;72.40
5808;DHT22;2930;42.678;23.312;2023-07-20T07:51:30;26.80;72.40
5808;DHT22;2930;42.678;23.312;2023-07-20T07:53:56;26.90;72.20
5808;DHT22;2930;42.678;23.312;2023-07-20T07:56:22;26.90;71.80
5808;DHT22;2930;42.678;23.312;2023-07-20T07:58:51;27.00;71.60
5808;DHT22;2930;42.678;23.312;2023-07-20T08:01:17;27.00;71.70
5808;DHT22;2930;42.678;23.312;2023-07-20T08:03:45;27.00;71.80
5808;DHT22;2930;42.678;23.312;2023-07-20T08:06:13;27.10;71.90
5808;DHT22;2930;42.678;23.312;2023-07-20T08:08:38;27.10;71.50
5808;DHT22;2930;42.678;23.312;2023-07-20T08:11:04;27.00;71.90
5808;DHT22;2930;42.678;23.312;2023-07-20T08:13:30;27.10;71.90
5808;DHT22;2930;42.678;23.312;2023-07-20T08:15:56;27.00;71.70
5808;DHT22;2930;42.678;23.312;2023-07-20T08:18:22;27.10;71.90
5808;DHT22;2930;42.678;23.312;2023-07-20T08:20:54;27.20;72.30
5808;DHT22;2930;42.678;23.312;2023-07-20T08:23:20;27.10;73.00
5808;DHT22;2930;42.678;23.312;2023-07-20T08:25:45;27.10;73.30
5808;DHT22;2930;42.678;23.312;2023-07-20T08:28:16;27.00;73.30
5808;DHT22;2930;42.678;23.312;2023-07-20T08:30:46;26.90;73.00
5808;DHT22;2930;42.678;23.312;2023-07-20T08:33:17;26.70;72.30
5808;DHT22;2930;42.678;23.312;2023-07-20T08:35:46;26.60;72.60
5808;DHT22;2930;42.678;23.312;2023-07-20T08:38:12;26.30;71.90
5808;DHT22;2930;42.678;23.312;2023-07-20T08:40:56;26.30;71.90
5808;DHT22;2930;42.678;23.312;2023-07-20T08:43:23;26.40;70.90
5808;DHT22;2930;42.678;23.312;2023-07-20T08:45:54;26.40;70.80
5808;DHT22;2930;42.678;23.312;2023-07-20T08:48:20;26.50;70.00
5808;DHT22;2930;42.678;23.312;2023-07-20T08:50:49;26.50;70.50
5808;DHT22;2930;42.678;23.312;2023-07-20T08:53:16;26.50;70.60
5808;DHT22;2930;42.678;23.312;2023-07-20T08:55:44;26.60;70.40
5808;DHT22;2930;42.678;23.312;2023-07-20T08:58:12;26.70;69.90
5808;DHT22;2930;42.678;23.312;2023-07-20T09:00:41;26.90;69.50
5808;DHT22;2930;42.678;23.312;2023-07-20T09:03:07;27.00;69.10
5808;DHT22;2930;42.678;23.312;2023-07-20T09:05:33;26.90;68.60
5808;DHT22;2930;42.678;23.312;2023-07-20T09:08:00;26.90;68.40
5808;DHT22;2930;42.678;23.312;2023-07-20T09:10:29;27.10;68.40
5808;DHT22;2930;42.678;23.312;2023-07-20T09:12:54;27.00;68.60
5808;DHT22;2930;42.678;23.312;2023-07-20T09:15:21;27.00;68.50
5808;DHT22;2930;42.678;23.312;2023-07-20T09:17:48;27.00;68.70
5808;DHT22;2930;42.678;23.312;2023-07-20T09:20:18;27.00;69.00
5808;DHT22;2930;42.678;23.312;2023-07-20T09:22:44;27.20;68.40
5808;DHT22;2930;42.678;23.312;2023-07-20T09:25:15;27.30;67.60
5808;DHT22;2930;42.678;23.312;2023-07-20T09:27:45;27.50;67.20
5808;DHT22;2930;42.678;23.312;2023-07-20T09:30:14;27.50;66.10
5808;DHT22;2930;42.678;23.312;2023-07-20T09:32:44;27.40;65.90
5808;DHT22;2930;42.678;23.312;2023-07-20T09:35:17;27.30;66.30
5808;DHT22;2930;42.678;23.312;2023-07-20T09:37:59;27.50;65.90
5808;DHT22;2930;42.678;23.312;2023-07-20T09:40:25;27.40;65.30
5808;DHT22;2930;42.678;23.312;2023-07-20T09:42:53;27.50;64.80
5808;DHT22;2930;42.678;23.312;2023-07-20T09:45:42;27.60;64.20
5808;DHT22;2930;42.678;23.312;2023-07-20T09:48:08;27.60;63.80
5808;DHT22;2930;42.678;23.312;2023-07-20T09:50:39;27.80;65.10
5808;DHT22;2930;42.678;23.312;2023-07-20T09:53:07;28.00;64.60
5808;DHT22;2930;42.678;23.312;2023-07-20T09:55:34;28.20;63.80
5808;DHT22;2930;42.678;23.312;2023-07-20T09:58:01;28.50;62.90
5808;DHT22;2930;42.678;23.312;2023-07-20T10:00:28;28.90;62.80
5808;DHT22;2930;42.678;23.312;2023-07-20T10:02:55;29.20;60.50
5808;DHT22;2930;42.678;23.312;2023-07-20T10:05:21;29.40;60.80
5808;DHT22;2930;42.678;23.312;2023-07-20T10:07:48;29.40;60.80
5808;DHT22;2930;42.678;23.312;2023-07-20T10:10:16;29.30;60.60
5808;DHT22;2930;42.678;23.312;2023-07-20T10:12:49;29.40;60.90
5808;DHT22;2930;42.678;23.312;2023-07-20T10:15:24;29.40;60.70
5808;DHT22;2930;42.678;23.312;2023-07-20T10:18:17;29.10;61.60
5808;DHT22;2930;42.678;23.312;2023-07-20T10:20:49;29.00;61.60
5808;DHT22;2930;42.678;23.312;2023-07-20T10:23:17;29.00;61.90
5808;DHT22;2930;42.678;23.312;2023-07-20T10:25:43;29.10;61.70
5808;DHT22;2930;42.678;23.312;2023-07-20T10:28:10;29.20;60.90
5808;DHT22;2930;42.678;23.312;2023-07-20T10:30:37;29.40;61.10
5808;DHT22;2930;42.678;23.312;2023-07-20T10:33:03;29.50;60.80
5808;DHT22;2930;42.678;23.312;2023-07-20T10:35:29;29.80;60.60
5808;DHT22;2930;42.678;23.312;2023-07-20T10:38:04;30.00;59.00
5808;DHT22;2930;42.678;23.312;2023-07-20T10:40:38;30.00;59.30
5808;DHT22;2930;42.678;23.312;2023-07-20T10:43:08;30.10;59.60
5808;DHT22;2930;42.678;23.312;2023-07-20T10:48:13;30.00;60.30
5808;DHT22;2930;42.678;23.312;2023-07-20T10:50:40;30.10;60.50
5808;DHT22;2930;42.678;23.312;2023-07-20T10:53:17;30.20;60.20
5808;DHT22;2930;42.678;23.312;2023-07-20T10:55:46;30.20;59.10
5808;DHT22;2930;42.678;23.312;2023-07-20T10:58:16;30.20;60.00
5808;DHT22;2930;42.678;23.312;2023-07-20T11:00:57;30.30;59.80
5808;DHT22;2930;42.678;23.312;2023-07-20T11:03:31;30.50;59.20
5808;DHT22;2930;42.678;23.312;2023-07-20T11:05:58;30.60;58.80
5808;DHT22;2930;42.678;23.312;2023-07-20T11:08:42;30.80;60.30
5808;DHT22;2930;42.678;23.312;2023-07-20T11:11:31;31.00;61.40
5808;DHT22;2930;42.678;23.312;2023-07-20T11:13:59;31.30;59.70
5808;DHT22;2930;42.678;23.312;2023-07-20T11:16:38;31.80;59.70
5808;DHT22;2930;42.678;23.312;2023-07-20T11:19:05;32.30;57.90
5808;DHT22;2930;42.678;23.312;2023-07-20T11:21:38;32.80;58.20
5808;DHT22;2930;42.678;23.312;2023-07-20T11:24:06;33.30;57.30
5808;DHT22;2930;42.678;23.312;2023-07-20T11:26:49;34.10;55.60
5808;DHT22;2930;42.678;23.312;2023-07-20T11:29:16;34.60;55.30
5808;DHT22;2930;42.678;23.312;2023-07-20T11:31:44;34.90;55.30
5808;DHT22;2930;42.678;23.312;2023-07-20T11:34:20;35.30;54.20
5808;DHT22;2930;42.678;23.312;2023-07-20T11:36:48;35.80;55.10
5808;DHT22;2930;42.678;23.312;2023-07-20T11:39:15;36.20;53.50
5808;DHT22;2930;42.678;23.312;2023-07-20T11:41:47;36.80;52.10
5808;DHT22;2930;42.678;23.312;2023-07-20T11:44:13;37.50;50.90
5808;DHT22;2930;42.678;23.312;2023-07-20T11:46:41;38.30;49.90
5808;DHT22;2930;42.678;23.312;2023-07-20T11:49:07;38.70;49.90
5808;DHT22;2930;42.678;23.312;2023-07-20T11:51:34;39.00;50.00
5808;DHT22;2930;42.678;23.312;2023-07-20T11:54:01;39.40;49.60
5808;DHT22;2930;42.678;23.312;2023-07-20T11:56:27;40.00;48.00
5808;DHT22;2930;42.678;23.312;2023-07-20T11:59:00;40.40;46.80
5808;DHT22;2930;42.678;23.312;2023-07-20T12:01:28;40.60;47.40
5808;DHT22;2930;42.678;23.312;2023-07-20T12:04:04;40.90;47.60
5808;DHT22;2930;42.678;23.312;2023-07-20T12:06:30;41.20;47.30
5808;DHT22;2930;42.678;23.312;2023-07-20T12:08:57;41.80;45.80
5808;DHT22;2930;42.678;23.312;2023-07-20T12:11:33;42.10;47.00
5808;DHT22;2930;42.678;23.312;2023-07-20T12:13:59;42.50;45.90
5808;DHT22;2930;42.678;23.312;2023-07-20T12:16:27;43.00;43.20
5808;DHT22;2930;42.678;23.312;2023-07-20T12:21:26;43.60;44.60
5808;DHT22;2930;42.678;23.312;2023-07-20T12:23:52;43.40;42.60
5808;DHT22;2930;42.678;23.312;2023-07-20T12:26:17;43.50;45.10
5808;DHT22;2930;42.678;23.312;2023-07-20T12:28:43;43.70;43.80
5808;DHT22;2930;42.678;23.312;2023-07-20T12:31:09;43.60;44.60
5808;DHT22;2930;42.678;23.312;2023-07-20T12:33:39;43.90;43.40
5808;DHT22;2930;42.678;23.312;2023-07-20T12:36:05;44.00;43.80
5808;DHT22;2930;42.678;23.312;2023-07-20T12:38:31;43.60;42.70
5808;DHT22;2930;42.678;23.312;2023-07-20T12:40:57;43.70;43.80
5808;DHT22;2930;42.678;23.312;2023-07-20T12:43:24;43.80;42.60
5808;DHT22;2930;42.678;23.312;2023-07-20T12:45:49;43.90;40.70
5808;DHT22;2930;42.678;23.312;2023-07-20T12:48:15;43.60;40.00
5808;DHT22;2930;42.678;23.312;2023-07-20T12:50:41;42.90;40.00
5808;DHT22;2930;42.678;23.312;2023-07-20T12:53:07;42.20;40.70
5808;DHT22;2930;42.678;23.312;2023-07-20T12:55:33;41.50;42.80
5808;DHT22;2930;42.678;23.312;2023-07-20T12:57:59;41.20;42.10
5808;DHT22;2930;42.678;23.312;2023-07-20T13:00:25;41.20;42.40
5808;DHT22;2930;42.678;23.312;2023-07-20T13:02:51;41.40;44.20
5808;DHT22;2930;42.678;23.312;2023-07-20T13:05:17;41.70;43.80
5808;DHT22;2930;42.678;23.312;2023-07-20T13:07:43;42.10;44.80
5808;DHT22;2930;42.678;23.312;2023-07-20T13:10:10;42.60;42.50
5808;DHT22;2930;42.678;23.312;2023-07-20T13:12:37;43.10;44.60
5808;DHT22;2930;42.678;23.312;2023-07-20T13:15:04;43.60;43.00
5808;DHT22;2930;42.678;23.312;2023-07-20T13:17:37;43.90;41.30
5808;DHT22;2930;42.678;23.312;2023-07-20T13:20:08;43.90;41.00
5808;DHT22;2930;42.678;23.312;2023-07-20T13:22:35;43.70;42.70
5808;DHT22;2930;42.678;23.312;2023-07-20T13:25:01;43.40;41.60
5808;DHT22;2930;42.678;23.312;2023-07-20T13:27:27;42.80;43.20
5808;DHT22;2930;42.678;23.312;2023-07-20T13:29:53;42.80;44.20
5808;DHT22;2930;42.678;23.312;2023-07-20T13:32:19;42.80;44.80
5808;DHT22;2930;42.678;23.312;2023-07-20T13:34:45;43.00;43.20
5808;DHT22;2930;42.678;23.312;2023-07-20T13:37:12;43.10;42.60
5808;DHT22;2930;42.678;23.312;2023-07-20T13:39:38;43.10;43.10
5808;DHT22;2930;42.678;23.312;2023-07-20T13:42:04;42.70;44.20
5808;DHT22;2930;42.678;23.312;2023-07-20T13:44:33;42.80;43.90
5808;DHT22;2930;42.678;23.312;2023-07-20T13:47:00;42.90;43.40
5808;DHT22;2930;42.678;23.312;2023-07-20T13:49:26;42.90;43.90
5808;DHT22;2930;42.678;23.312;2023-07-20T13:51:52;43.00;43.30
5808;DHT22;2930;42.678;23.312;2023-07-20T13:54:17;43.00;42.70
5808;DHT22;2930;42.678;23.312;2023-07-20T13:56:43;43.10;42.60
5808;DHT22;2930;42.678;23.312;2023-07-20T13:59:09;42.80;43.50
5808;DHT22;2930;42.678;23.312;2023-07-20T14:01:34;42.90;43.40
5808;DHT22;2930;42.678;23.312;2023-07-20T14:04:01;42.80;42.60
5808;DHT22;2930;42.678;23.312;2023-07-20T14:06:30;42.70;43.40
5808;DHT22;2930;42.678;23.312;2023-07-20T14:08:56;42.40;41.40
5808;DHT22;2930;42.678;23.312;2023-07-20T14:11:23;41.90;42.10
5808;DHT22;2930;42.678;23.312;2023-07-20T14:13:52;41.90;42.30
5808;DHT22;2930;42.678;23.312;2023-07-20T14:16:23;41.90;42.00
5808;DHT22;2930;42.678;23.312;2023-07-20T14:18:49;42.00;42.70
5808;DHT22;2930;42.678;23.312;2023-07-20T14:21:19;42.10;42.30
5808;DHT22;2930;42.678;23.312;2023-07-20T14:23:46;41.90;42.60
5808;DHT22;2930;42.678;23.312;2023-07-20T14:26:12;41.30;44.00
5808;DHT22;2930;42.678;23.312;2023-07-20T14:28:38;40.90;43.20
5808;DHT22;2930;42.678;23.312;2023-07-20T14:31:04;40.50;44.10
5808;DHT22;2930;42.678;23.312;2023-07-20T14:33:31;40.50;45.00
5808;DHT22;2930;42.678;23.312;2023-07-20T14:35:56;40.60;45.30
5808;DHT22;2930;42.678;23.312;2023-07-20T14:38:22;40.60;45.70
5808;DHT22;2930;42.678;23.312;2023-07-20T14:40:48;40.70;45.70
5808;DHT22;2930;42.678;23.312;2023-07-20T14:43:13;40.80;45.10
5808;DHT22;2930;42.678;23.312;2023-07-20T14:45:41;40.80;44.40
5808;DHT22;2930;42.678;23.312;2023-07-20T14:48:07;40.90;45.10
5808;DHT22;2930;42.678;23.312;2023-07-20T14:50:33;40.90;44.70
5808;DHT22;2930;42.678;23.312;2023-07-20T14:52:59;40.80;45.10
5808;DHT22;2930;42.678;23.312;2023-07-20T14:55:25;40.80;45.50
5808;DHT22;2930;42.678;23.312;2023-07-20T14:57:51;40.70;45.20
5808;DHT22;2930;42.678;23.312;2023-07-20T15:00:17;40.50;45.80
5808;DHT22;2930;42.678;23.312;2023-07-20T15:02:43;40.40;46.20
5808;DHT22;2930;42.678;23.312;2023-07-20T15:05:12;40.30;46.00
5808;DHT22;2930;42.678;23.312;2023-07-20T15:07:45;40.20;46.20
5808;DHT22;2930;42.678;23.312;2023-07-20T15:10:11;40.20;47.20
5808;DHT22;2930;42.678;23.312;2023-07-20T15:12:36;40.30;46.30
5808;DHT22;2930;42.678;23.312;2023-07-20T15:15:12;40.40;46.20
5808;DHT22;2930;42.678;23.312;2023-07-20T15:17:39;40.30;46.90
5808;DHT22;2930;42.678;23.312;2023-07-20T15:20:07;40.30;46.80
5808;DHT22;2930;42.678;23.312;2023-07-20T15:22:34;40.10;47.30
5808;DHT22;2930;42.678;23.312;2023-07-20T15:25:07;39.90;47.50
5808;DHT22;2930;42.678;23.312;2023-07-20T15:27:34;39.70;47.00
5808;DHT22;2930;42.678;23.312;2023-07-20T15:30:00;39.50;47.20
5808;DHT22;2930;42.678;23.312;2023-07-20T15:32:25;39.40;47.70
5808;DHT22;2930;42.678;23.312;2023-07-20T15:34:51;39.30;47.40
5808;DHT22;2930;42.678;23.312;2023-07-20T15:37:17;39.20;48.40
5808;DHT22;2930;42.678;23.312;2023-07-20T15:39:43;39.10;48.00
5808;DHT22;2930;42.678;23.312;2023-07-20T15:42:08;39.00;48.10
5808;DHT22;2930;42.678;23.312;2023-07-20T15:44:34;38.80;48.20
5808;DHT22;2930;42.678;23.312;2023-07-20T15:47:00;38.60;48.60
5808;DHT22;2930;42.678;23.312;2023-07-20T15:49:27;38.50;48.10
5808;DHT22;2930;42.678;23.312;2023-07-20T15:51:53;38.30;48.40
5808;DHT22;2930;42.678;23.312;2023-07-20T15:54:19;38.00;48.10
5808;DHT22;2930;42.678;23.312;2023-07-20T15:56:45;37.70;47.90
5808;DHT22;2930;42.678;23.312;2023-07-20T15:59:12;37.40;48.50
5808;DHT22;2930;42.678;23.312;2023-07-20T16:01:38;37.30;48.90